sensor_id;sensor_type;location;lat;lon;timestamp;pressure;altitude;pressure_sealevel;temperature;humidity
80149;BME280;69473;42.426;26.644;2024-03-08T00:02:03;99186.53;;;4.89;89.85
80149;BME280;69473;42.426;26.644;2024-03-08T00:04:29;99186.53;;;4.89;89.90
80149;BME280;69473;42.426;26.644;2024-03-08T00:06:55;99194.31;;;4.92;88.93
80149;BME280;69473;42.426;26.644;2024-03-08T00:09:20;99190.03;;;4.91;88.96
80149;BME280;69473;42.426;26.644;2024-03-08T00:11:47;99176.25;;;4.89;89.81
80149;BME280;69473;42.426;26.644;2024-03-08T00:14:14;99174.53;;;4.88;89.27
80149;BME280;69473;42.426;26.644;2024-03-08T00:16:39;99167.69;;;4.86;88.58
80149;BME280;69473;42.426;26.644;2024-03-08T00:19:09;99166.63;;;4.78;88.94
80149;BME280;69473;42.426;26.644;2024-03-08T00:21:35;99161.69;;;4.88;88.74
80149;BME280;69473;42.426;26.644;2024-03-08T00:24:01;99164.19;;;4.84;88.84
80149;BME280;69473;42.426;26.644;2024-03-08T00:26:27;99164.34;;;4.91;88.46
80149;BME280;69473;42.426;26.644;2024-03-08T00:28:54;99156.56;;;4.88;88.88
80149;BME280;69473;42.426;26.644;2024-03-08T00:31:19;99146.22;;;4.83;88.80
80149;BME280;69473;42.426;26.644;2024-03-08T00:33:45;99163.34;;;4.84;87.97
80149;BME280;69473;42.426;26.644;2024-03-08T00:36:11;99161.78;;;4.91;87.91
80149;BME280;69473;42.426;26.644;2024-03-08T00:38:36;99163.56;;;4.93;87.37
80149;BME280;69473;42.426;26.644;2024-03-08T00:41:02;99166.06;;;4.92;87.58
80149;BME280;69473;42.426;26.644;2024-03-08T00:43:28;99160.78;;;4.84;87.71
80149;BME280;69473;42.426;26.644;2024-03-08T00:45:55;99152.28;;;4.86;87.76
80149;BME280;69473;42.426;26.644;2024-03-08T00:48:21;99159.22;;;4.91;86.37
80149;BME280;69473;42.426;26.644;2024-03-08T00:50:47;99149.53;;;4.79;87.77
80149;BME280;69473;42.426;26.644;2024-03-08T00:53:13;99158.78;;;4.72;87.16
80149;BME280;69473;42.426;26.644;2024-03-08T00:55:39;99160.56;;;4.76;87.18
80149;BME280;69473;42.426;26.644;2024-03-08T00:58:05;99146.94;;;4.77;87.31
80149;BME280;69473;42.426;26.644;2024-03-08T01:00:30;99155.72;;;4.89;86.17
80149;BME280;69473;42.426;26.644;2024-03-08T01:02:56;99150.31;;;4.76;86.11
80149;BME280;69473;42.426;26.644;2024-03-08T01:05:22;99152.22;;;4.83;85.98
80149;BME280;69473;42.426;26.644;2024-03-08T01:07:50;99160.50;;;4.73;86.67
80149;BME280;69473;42.426;26.644;2024-03-08T01:10:16;99158.00;;;4.76;86.46
80149;BME280;69473;42.426;26.644;2024-03-08T01:12:41;99152.88;;;4.76;85.82
80149;BME280;69473;42.426;26.644;2024-03-08T01:15:09;99151.06;;;4.71;86.71
80149;BME280;69473;42.426;26.644;2024-03-08T01:17:36;99157.06;;;4.71;86.29
80149;BME280;69473;42.426;26.644;2024-03-08T01:20:03;99162.28;;;4.76;86.46
80149;BME280;69473;42.426;26.644;2024-03-08T01:22:28;99153.59;;;4.69;86.46
80149;BME280;69473;42.426;26.644;2024-03-08T01:24:58;99161.22;;;4.66;86.99
80149;BME280;69473;42.426;26.644;2024-03-08T01:27:23;99161.28;;;4.69;85.96
80149;BME280;69473;42.426;26.644;2024-03-08T01:29:50;99162.06;;;4.65;86.49
80149;BME280;69473;42.426;26.644;2024-03-08T01:32:16;99161.50;;;4.78;85.99
80149;BME280;69473;42.426;26.644;2024-03-08T01:34:41;99153.66;;;4.72;85.29
80149;BME280;69473;42.426;26.644;2024-03-08T01:37:07;99157.13;;;4.74;83.95
80149;BME280;69473;42.426;26.644;2024-03-08T01:39:33;99144.25;;;4.73;83.66
80149;BME280;69473;42.426;26.644;2024-03-08T01:41:59;99148.50;;;4.72;84.05
80149;BME280;69473;42.426;26.644;2024-03-08T01:44:26;99155.38;;;4.73;84.38
80149;BME280;69473;42.426;26.644;2024-03-08T01:46:53;99143.31;;;4.69;83.82
80149;BME280;69473;42.426;26.644;2024-03-08T01:49:21;99148.50;;;4.72;84.85
80149;BME280;69473;42.426;26.644;2024-03-08T01:51:49;99153.44;;;4.63;85.45
80149;BME280;69473;42.426;26.644;2024-03-08T01:54:16;99149.78;;;4.52;85.97
80149;BME280;69473;42.426;26.644;2024-03-08T01:56:44;99155.03;;;4.58;85.56
80149;BME280;69473;42.426;26.644;2024-03-08T01:59:10;99151.50;;;4.53;85.49
80149;BME280;69473;42.426;26.644;2024-03-08T02:01:35;99153.22;;;4.54;84.70
80149;BME280;69473;42.426;26.644;2024-03-08T02:04:01;99156.56;;;4.50;86.02
80149;BME280;69473;42.426;26.644;2024-03-08T02:06:26;99157.41;;;4.50;85.42
80149;BME280;69473;42.426;26.644;2024-03-08T02:08:52;99163.47;;;4.54;85.52
80149;BME280;69473;42.426;26.644;2024-03-08T02:11:19;99160.22;;;4.61;85.35
80149;BME280;69473;42.426;26.644;2024-03-08T02:13:46;99162.75;;;4.58;84.26
80149;BME280;69473;42.426;26.644;2024-03-08T02:16:12;99161.91;;;4.59;84.28
80149;BME280;69473;42.426;26.644;2024-03-08T02:18:37;99153.38;;;4.60;84.19
80149;BME280;69473;42.426;26.644;2024-03-08T02:21:05;99158.63;;;4.66;84.18
80149;BME280;69473;42.426;26.644;2024-03-08T02:23:32;99158.56;;;4.63;84.78
80149;BME280;69473;42.426;26.644;2024-03-08T02:25:59;99155.22;;;4.67;83.89
80149;BME280;69473;42.426;26.644;2024-03-08T02:28:25;99150.09;;;4.67;84.56
80149;BME280;69473;42.426;26.644;2024-03-08T02:30:51;99148.31;;;4.63;86.07
80149;BME280;69473;42.426;26.644;2024-03-08T02:33:20;99155.09;;;4.61;86.18
80149;BME280;69473;42.426;26.644;2024-03-08T02:35:47;99144.09;;;4.65;86.43
80149;BME280;69473;42.426;26.644;2024-03-08T02:38:18;99142.25;;;4.61;86.11
80149;BME280;69473;42.426;26.644;2024-03-08T02:40:48;99143.09;;;4.60;85.80
80149;BME280;69473;42.426;26.644;2024-03-08T02:43:15;99136.16;;;4.56;85.99
80149;BME280;69473;42.426;26.644;2024-03-08T02:45:41;99137.81;;;4.54;86.53
80149;BME280;69473;42.426;26.644;2024-03-08T02:48:08;99131.88;;;4.55;86.56
80149;BME280;69473;42.426;26.644;2024-03-08T02:50:34;99124.91;;;4.51;87.06
80149;BME280;69473;42.426;26.644;2024-03-08T02:53:00;99128.41;;;4.54;86.56
80149;BME280;69473;42.426;26.644;2024-03-08T02:55:26;99135.19;;;4.51;87.00
80149;BME280;69473;42.426;26.644;2024-03-08T02:57:52;99140.31;;;4.51;86.86
80149;BME280;69473;42.426;26.644;2024-03-08T03:00:20;99141.94;;;4.47;87.90
80149;BME280;69473;42.426;26.644;2024-03-08T03:02:51;99146.22;;;4.47;87.47
80149;BME280;69473;42.426;26.644;2024-03-08T03:05:20;99148.78;;;4.47;87.44
80149;BME280;69473;42.426;26.644;2024-03-08T03:07:46;99138.44;;;4.44;88.30
80149;BME280;69473;42.426;26.644;2024-03-08T03:10:12;99142.81;;;4.48;87.93
80149;BME280;69473;42.426;26.644;2024-03-08T03:12:37;99145.22;;;4.42;87.89
80149;BME280;69473;42.426;26.644;2024-03-08T03:15:04;99149.41;;;4.36;88.37
80149;BME280;69473;42.426;26.644;2024-03-08T03:17:30;99146.78;;;4.35;88.12
80149;BME280;69473;42.426;26.644;2024-03-08T03:19:55;99144.19;;;4.33;88.45
80149;BME280;69473;42.426;26.644;2024-03-08T03:22:21;99142.66;;;4.42;87.75
80149;BME280;69473;42.426;26.644;2024-03-08T03:24:47;99151.28;;;4.44;88.02
80149;BME280;69473;42.426;26.644;2024-03-08T03:27:13;99154.59;;;4.39;88.05
80149;BME280;69473;42.426;26.644;2024-03-08T03:29:42;99147.63;;;4.35;88.37
80149;BME280;69473;42.426;26.644;2024-03-08T03:32:14;99149.47;;;4.39;88.55
80149;BME280;69473;42.426;26.644;2024-03-08T03:34:40;99152.69;;;4.32;89.82
80149;BME280;69473;42.426;26.644;2024-03-08T03:37:07;99148.50;;;4.36;89.08
80149;BME280;69473;42.426;26.644;2024-03-08T03:39:39;99152.78;;;4.35;89.64
80149;BME280;69473;42.426;26.644;2024-03-08T03:42:15;99145.13;;;4.37;89.84
80149;BME280;69473;42.426;26.644;2024-03-08T03:44:51;99141.56;;;4.32;89.28
80149;BME280;69473;42.426;26.644;2024-03-08T03:47:17;99135.81;;;4.40;88.68
80149;BME280;69473;42.426;26.644;2024-03-08T03:49:43;99149.47;;;4.39;89.20
80149;BME280;69473;42.426;26.644;2024-03-08T03:52:09;99139.28;;;4.43;88.81
80149;BME280;69473;42.426;26.644;2024-03-08T03:54:35;99141.69;;;4.36;88.74
80149;BME280;69473;42.426;26.644;2024-03-08T03:57:02;99147.63;;;4.35;89.48
80149;BME280;69473;42.426;26.644;2024-03-08T03:59:28;99146.13;;;4.44;89.09
80149;BME280;69473;42.426;26.644;2024-03-08T04:01:54;99137.44;;;4.38;88.88
80149;BME280;69473;42.426;26.644;2024-03-08T04:04:20;99139.13;;;4.36;89.81
80149;BME280;69473;42.426;26.644;2024-03-08T04:06:46;99145.13;;;4.37;90.02
80149;BME280;69473;42.426;26.644;2024-03-08T04:09:11;99140.84;;;4.37;89.46
80149;BME280;69473;42.426;26.644;2024-03-08T04:11:38;99141.66;;;4.35;90.21
80149;BME280;69473;42.426;26.644;2024-03-08T04:14:04;99154.53;;;4.36;89.57
80149;BME280;69473;42.426;26.644;2024-03-08T04:16:31;99150.06;;;4.29;90.17
80149;BME280;69473;42.426;26.644;2024-03-08T04:18:59;99150.97;;;4.31;91.14
80149;BME280;69473;42.426;26.644;2024-03-08T04:21:32;99144.97;;;4.31;90.33
80149;BME280;69473;42.426;26.644;2024-03-08T04:23:58;99144.03;;;4.27;90.88
80149;BME280;69473;42.426;26.644;2024-03-08T04:26:23;99143.28;;;4.31;90.83
80149;BME280;69473;42.426;26.644;2024-03-08T04:28:51;99150.75;;;4.22;90.99
80149;BME280;69473;42.426;26.644;2024-03-08T04:31:17;99150.81;;;4.25;91.00
80149;BME280;69473;42.426;26.644;2024-03-08T04:33:42;99151.75;;;4.27;91.45
80149;BME280;69473;42.426;26.644;2024-03-08T04:36:09;99152.69;;;4.32;91.34
80149;BME280;69473;42.426;26.644;2024-03-08T04:38:39;99157.81;;;4.32;91.43
80149;BME280;69473;42.426;26.644;2024-03-08T04:41:06;99156.19;;;4.34;90.62
80149;BME280;69473;42.426;26.644;2024-03-08T04:43:33;99165.56;;;4.34;90.34
80149;BME280;69473;42.426;26.644;2024-03-08T04:45:59;99159.50;;;4.30;91.30
80149;BME280;69473;42.426;26.644;2024-03-08T04:48:25;99161.22;;;4.31;90.49
80149;BME280;69473;42.426;26.644;2024-03-08T04:50:53;99167.28;;;4.33;90.47
80149;BME280;69473;42.426;26.644;2024-03-08T04:53:19;99164.63;;;4.30;90.71
80149;BME280;69473;42.426;26.644;2024-03-08T04:55:45;99162.06;;;4.30;91.05
80149;BME280;69473;42.426;26.644;2024-03-08T04:58:10;99166.28;;;4.28;91.85
80149;BME280;69473;42.426;26.644;2024-03-08T05:00:36;99171.56;;;4.34;90.97
80149;BME280;69473;42.426;26.644;2024-03-08T05:03:01;99171.56;;;4.34;91.30
80149;BME280;69473;42.426;26.644;2024-03-08T05:05:28;99174.91;;;4.30;91.40
80149;BME280;69473;42.426;26.644;2024-03-08T05:07:54;99177.63;;;4.38;90.43
80149;BME280;69473;42.426;26.644;2024-03-08T05:10:20;99171.66;;;4.37;91.36
80149;BME280;69473;42.426;26.644;2024-03-08T05:12:46;99185.31;;;4.36;90.80
80149;BME280;69473;42.426;26.644;2024-03-08T05:15:11;99182.75;;;4.36;91.47
80149;BME280;69473;42.426;26.644;2024-03-08T05:17:37;99188.75;;;4.37;90.18
80149;BME280;69473;42.426;26.644;2024-03-08T05:20:02;99193.09;;;4.41;90.28
80149;BME280;69473;42.426;26.644;2024-03-08T05:22:29;99199.97;;;4.42;90.85
80149;BME280;69473;42.426;26.644;2024-03-08T05:24:55;99197.47;;;4.44;89.91
80149;BME280;69473;42.426;26.644;2024-03-08T05:27:21;99203.44;;;4.43;90.25
80149;BME280;69473;42.426;26.644;2024-03-08T05:29:46;99206.00;;;4.43;90.24
80149;BME280;69473;42.426;26.644;2024-03-08T05:32:12;99213.00;;;4.50;90.35
80149;BME280;69473;42.426;26.644;2024-03-08T05:34:38;99212.00;;;4.43;89.81
80149;BME280;69473;42.426;26.644;2024-03-08T05:37:04;99220.50;;;4.42;91.20
80149;BME280;69473;42.426;26.644;2024-03-08T05:39:30;99216.41;;;4.49;90.45
80149;BME280;69473;42.426;26.644;2024-03-08T05:41:55;99227.47;;;4.46;90.75
80149;BME280;69473;42.426;26.644;2024-03-08T05:44:21;99224.91;;;4.48;90.75
80149;BME280;69473;42.426;26.644;2024-03-08T05:46:47;99224.97;;;4.49;90.50
80149;BME280;69473;42.426;26.644;2024-03-08T05:49:13;99233.59;;;4.53;90.42
80149;BME280;69473;42.426;26.644;2024-03-08T05:51:40;99237.88;;;4.52;90.28
80149;BME280;69473;42.426;26.644;2024-03-08T05:54:08;99237.81;;;4.51;90.36
80149;BME280;69473;42.426;26.644;2024-03-08T05:56:38;99240.31;;;4.48;91.30
80149;BME280;69473;42.426;26.644;2024-03-08T05:59:04;99233.69;;;4.56;90.06
80149;BME280;69473;42.426;26.644;2024-03-08T06:01:30;99249.09;;;4.56;90.25
80149;BME280;69473;42.426;26.644;2024-03-08T06:03:56;99251.66;;;4.56;89.78
80149;BME280;69473;42.426;26.644;2024-03-08T06:06:23;99255.94;;;4.57;90.02
80149;BME280;69473;42.426;26.644;2024-03-08T06:08:50;99257.63;;;4.55;89.94
80149;BME280;69473;42.426;26.644;2024-03-08T06:11:18;99254.25;;;4.57;90.79
80149;BME280;69473;42.426;26.644;2024-03-08T06:13:46;99257.69;;;4.58;90.56
80149;BME280;69473;42.426;26.644;2024-03-08T06:16:12;99252.63;;;4.61;90.92
80149;BME280;69473;42.426;26.644;2024-03-08T06:18:38;99256.31;;;4.72;89.37
80149;BME280;69473;42.426;26.644;2024-03-08T06:21:07;99255.19;;;4.61;91.61
80149;BME280;69473;42.426;26.644;2024-03-08T06:23:37;99264.75;;;4.67;89.92
80149;BME280;69473;42.426;26.644;2024-03-08T06:26:07;99272.56;;;4.71;90.33
80149;BME280;69473;42.426;26.644;2024-03-08T06:28:34;99270.97;;;4.76;90.11
80149;BME280;69473;42.426;26.644;2024-03-08T06:31:03;99258.13;;;4.76;90.67
80149;BME280;69473;42.426;26.644;2024-03-08T06:33:29;99261.75;;;4.84;89.66
80149;BME280;69473;42.426;26.644;2024-03-08T06:35:55;99272.09;;;4.88;88.85
80149;BME280;69473;42.426;26.644;2024-03-08T06:38:24;99271.19;;;4.85;89.69
80149;BME280;69473;42.426;26.644;2024-03-08T06:40:50;99274.91;;;4.97;88.57
80149;BME280;69473;42.426;26.644;2024-03-08T06:43:17;99270.53;;;4.93;88.34
80149;BME280;69473;42.426;26.644;2024-03-08T06:45:44;99279.28;;;5.01;88.59
80149;BME280;69473;42.426;26.644;2024-03-08T06:48:17;99274.13;;;5.01;87.77
80149;BME280;69473;42.426;26.644;2024-03-08T06:50:47;99274.19;;;5.04;88.47
80149;BME280;69473;42.426;26.644;2024-03-08T06:53:13;99275.97;;;5.05;87.43
80149;BME280;69473;42.426;26.644;2024-03-08T06:55:39;99272.47;;;5.03;87.55
80149;BME280;69473;42.426;26.644;2024-03-08T06:58:05;99280.28;;;5.07;88.08
80149;BME280;69473;42.426;26.644;2024-03-08T07:00:32;99277.91;;;5.15;86.77
80149;BME280;69473;42.426;26.644;2024-03-08T07:02:58;99275.50;;;5.23;85.69
80149;BME280;69473;42.426;26.644;2024-03-08T07:05:30;99281.72;;;5.32;86.49
80149;BME280;69473;42.426;26.644;2024-03-08T07:07:56;99287.25;;;5.51;85.85
80149;BME280;69473;42.426;26.644;2024-03-08T07:10:22;99278.88;;;5.58;84.60
80149;BME280;69473;42.426;26.644;2024-03-08T07:12:52;99277.44;;;5.72;83.95
80149;BME280;69473;42.426;26.644;2024-03-08T07:15:19;99280.88;;;5.73;84.08
80149;BME280;69473;42.426;26.644;2024-03-08T07:17:48;99281.13;;;5.84;83.75
80149;BME280;69473;42.426;26.644;2024-03-08T07:20:14;99283.38;;;6.09;82.16
80149;BME280;69473;42.426;26.644;2024-03-08T07:22:41;99270.31;;;6.44;80.10
80149;BME280;69473;42.426;26.644;2024-03-08T07:25:08;99274.13;;;6.64;79.65
80149;BME280;69473;42.426;26.644;2024-03-08T07:27:53;99286.13;;;6.65;78.35
80149;BME280;69473;42.426;26.644;2024-03-08T07:30:24;99286.81;;;6.55;78.45
80149;BME280;69473;42.426;26.644;2024-03-08T07:33:09;99284.09;;;6.46;78.63
80149;BME280;69473;42.426;26.644;2024-03-08T07:35:39;99285.59;;;6.35;79.11
80149;BME280;69473;42.426;26.644;2024-03-08T07:38:06;99288.72;;;6.18;79.44
80149;BME280;69473;42.426;26.644;2024-03-08T07:40:35;99298.03;;;6.13;79.42
80149;BME280;69473;42.426;26.644;2024-03-08T07:43:01;99301.31;;;6.05;79.67
80149;BME280;69473;42.426;26.644;2024-03-08T07:45:27;99295.34;;;6.07;80.16
80149;BME280;69473;42.426;26.644;2024-03-08T07:47:53;99289.38;;;6.08;78.47
80149;BME280;69473;42.426;26.644;2024-03-08T07:50:18;99299.63;;;6.07;79.13
80149;BME280;69473;42.426;26.644;2024-03-08T09:00:04;99324.53;;;6.09;80.24
80149;BME280;69473;42.426;26.644;2024-03-08T09:02:33;99331.41;;;6.10;79.33
80149;BME280;69473;42.426;26.644;2024-03-08T09:04:59;99331.22;;;6.01;80.06
80149;BME280;69473;42.426;26.644;2024-03-08T09:07:26;99331.94;;;5.94;79.77
80149;BME280;69473;42.426;26.644;2024-03-08T09:09:53;99336.91;;;5.88;80.79
80149;BME280;69473;42.426;26.644;2024-03-08T09:12:23;99338.56;;;5.83;81.23
80149;BME280;69473;42.426;26.644;2024-03-08T09:14:48;99341.91;;;5.80;81.77
80149;BME280;69473;42.426;26.644;2024-03-08T09:17:15;99342.84;;;5.84;80.17
80149;BME280;69473;42.426;26.644;2024-03-08T09:19:45;99341.19;;;5.86;80.41
80149;BME280;69473;42.426;26.644;2024-03-08T09:22:11;99341.28;;;5.92;80.10
80149;BME280;69473;42.426;26.644;2024-03-08T09:24:36;99343.13;;;5.96;79.96
80149;BME280;69473;42.426;26.644;2024-03-08T09:27:02;99342.97;;;5.90;79.59
80149;BME280;69473;42.426;26.644;2024-03-08T09:29:28;99342.97;;;5.90;81.63
80149;BME280;69473;42.426;26.644;2024-03-08T09:31:54;99351.53;;;5.89;81.57
80149;BME280;69473;42.426;26.644;2024-03-08T09:34:19;99348.91;;;5.87;80.23
80149;BME280;69473;42.426;26.644;2024-03-08T09:36:45;99354.09;;;5.89;80.42
80149;BME280;69473;42.426;26.644;2024-03-08T09:39:11;99351.53;;;5.89;80.28
80149;BME280;69473;42.426;26.644;2024-03-08T09:41:43;99343.72;;;5.84;80.49
80149;BME280;69473;42.426;26.644;2024-03-08T09:44:09;99346.41;;;5.89;80.50
80149;BME280;69473;42.426;26.644;2024-03-08T09:46:35;99346.72;;;6.04;78.84
80149;BME280;69473;42.426;26.644;2024-03-08T09:49:01;99337.47;;;6.12;79.48
80149;BME280;69473;42.426;26.644;2024-03-08T09:51:33;99342.09;;;6.29;77.56
80149;BME280;69473;42.426;26.644;2024-03-08T09:54:01;99343.91;;;6.33;77.82
80149;BME280;69473;42.426;26.644;2024-03-08T09:56:32;99338.03;;;6.41;76.78
80149;BME280;69473;42.426;26.644;2024-03-08T09:58:59;99337.28;;;6.47;77.13
80149;BME280;69473;42.426;26.644;2024-03-08T10:01:31;99338.16;;;6.47;76.67
80149;BME280;69473;42.426;26.644;2024-03-08T10:03:57;99345.94;;;6.49;77.42
80149;BME280;69473;42.426;26.644;2024-03-08T10:06:23;99339.00;;;6.45;76.50
80149;BME280;69473;42.426;26.644;2024-03-08T10:08:51;99347.41;;;6.38;75.82
80149;BME280;69473;42.426;26.644;2024-03-08T10:11:18;99338.63;;;6.27;75.99
80149;BME280;69473;42.426;26.644;2024-03-08T10:13:45;99341.09;;;6.22;76.86
80149;BME280;69473;42.426;26.644;2024-03-08T10:16:12;99337.66;;;6.20;76.27
80149;BME280;69473;42.426;26.644;2024-03-08T10:18:38;99342.66;;;6.14;76.51
80149;BME280;69473;42.426;26.644;2024-03-08T10:21:06;99337.38;;;6.08;76.16
80149;BME280;69473;42.426;26.644;2024-03-08T10:23:33;99342.44;;;6.03;77.69
80149;BME280;69473;42.426;26.644;2024-03-08T10:26:19;99345.13;;;6.09;76.38
80149;BME280;69473;42.426;26.644;2024-03-08T10:28:48;99341.72;;;6.10;77.48
80149;BME280;69473;42.426;26.644;2024-03-08T10:31:15;99348.66;;;6.14;77.41
80149;BME280;69473;42.426;26.644;2024-03-08T10:33:41;99345.19;;;6.12;76.81
80149;BME280;69473;42.426;26.644;2024-03-08T10:36:08;99347.88;;;6.17;76.63
80149;BME280;69473;42.426;26.644;2024-03-08T10:38:42;99352.19;;;6.19;76.52
80149;BME280;69473;42.426;26.644;2024-03-08T10:41:09;99353.94;;;6.20;76.87
80149;BME280;69473;42.426;26.644;2024-03-08T10:49:08;99353.22;;;6.28;76.05
80149;BME280;69473;42.426;26.644;2024-03-08T10:51:39;99343.91;;;6.33;75.40
80149;BME280;69473;42.426;26.644;2024-03-08T10:54:09;99351.50;;;6.27;75.67
80149;BME280;69473;42.426;26.644;2024-03-08T10:56:35;99348.88;;;6.23;76.60
80149;BME280;69473;42.426;26.644;2024-03-08T10:59:01;99343.72;;;6.23;77.07
80149;BME280;69473;42.426;26.644;2024-03-08T11:01:30;99350.66;;;6.28;76.51
80149;BME280;69473;42.426;26.644;2024-03-08T11:03:55;99340.47;;;6.34;75.91
80149;BME280;69473;42.426;26.644;2024-03-08T11:08:50;99340.72;;;6.46;76.18
80149;BME280;69473;42.426;26.644;2024-03-08T11:11:32;99330.66;;;6.58;75.05
80149;BME280;69473;42.426;26.644;2024-03-08T11:14:03;99329.84;;;6.62;74.42
80149;BME280;69473;42.426;26.644;2024-03-08T11:19:06;99329.00;;;6.62;74.71
80149;BME280;69473;42.426;26.644;2024-03-08T11:21:36;99331.69;;;6.68;73.27
80149;BME280;69473;42.426;26.644;2024-03-08T11:24:12;99327.13;;;6.53;73.92
80149;BME280;69473;42.426;26.644;2024-03-08T11:26:42;99328.75;;;6.48;73.50
80149;BME280;69473;42.426;26.644;2024-03-08T11:32:17;99335.50;;;6.43;74.60
80149;BME280;69473;42.426;26.644;2024-03-08T11:34:49;99332.03;;;6.41;76.06
80149;BME280;69473;42.426;26.644;2024-03-08T11:37:19;99333.06;;;6.51;73.53
80149;BME280;69473;42.426;26.644;2024-03-08T11:39:52;99328.75;;;6.48;73.94
80149;BME280;69473;42.426;26.644;2024-03-08T11:42:19;99318.50;;;6.51;74.12
80149;BME280;69473;42.426;26.644;2024-03-08T11:44:46;99322.75;;;6.49;75.25
80149;BME280;69473;42.426;26.644;2024-03-08T11:47:13;99320.25;;;6.54;73.55
80149;BME280;69473;42.426;26.644;2024-03-08T11:49:40;99318.66;;;6.60;72.93
80149;BME280;69473;42.426;26.644;2024-03-08T11:52:18;99310.00;;;6.55;74.33
80149;BME280;69473;42.426;26.644;2024-03-08T11:54:54;99311.78;;;6.59;73.05
80149;BME280;69473;42.426;26.644;2024-03-08T11:57:25;99306.53;;;6.53;74.32
80149;BME280;69473;42.426;26.644;2024-03-08T11:59:55;99310.06;;;6.58;73.77
80149;BME280;69473;42.426;26.644;2024-03-08T12:02:32;99297.19;;;6.58;73.20
80149;BME280;69473;42.426;26.644;2024-03-08T12:05:01;99309.88;;;6.49;73.25
80149;BME280;69473;42.426;26.644;2024-03-08T12:07:29;99306.41;;;6.47;73.84
80149;BME280;69473;42.426;26.644;2024-03-08T12:10:20;99302.00;;;6.41;74.20
80149;BME280;69473;42.426;26.644;2024-03-08T12:12:52;99299.59;;;6.49;73.43
80149;BME280;69473;42.426;26.644;2024-03-08T12:15:21;99293.53;;;6.45;73.11
80149;BME280;69473;42.426;26.644;2024-03-08T12:17:49;99303.00;;;6.48;73.79
80149;BME280;69473;42.426;26.644;2024-03-08T12:20:21;99308.28;;;6.57;73.08
80149;BME280;69473;42.426;26.644;2024-03-08T12:22:47;99306.53;;;6.53;73.17
80149;BME280;69473;42.426;26.644;2024-03-08T12:25:14;99308.28;;;6.54;73.11
80149;BME280;69473;42.426;26.644;2024-03-08T12:27:41;99305.84;;;6.63;73.08
80149;BME280;69473;42.426;26.644;2024-03-08T12:30:21;99310.19;;;6.66;73.51
80149;BME280;69473;42.426;26.644;2024-03-08T12:32:59;99305.88;;;6.66;73.28
80149;BME280;69473;42.426;26.644;2024-03-08T12:35:27;99304.09;;;6.62;73.82
80149;BME280;69473;42.426;26.644;2024-03-08T12:37:57;99300.03;;;6.74;72.79
80149;BME280;69473;42.426;26.644;2024-03-08T12:40:31;99301.75;;;6.75;72.88
80149;BME280;69473;42.426;26.644;2024-03-08T12:43:01;99299.22;;;6.78;72.15
80149;BME280;69473;42.426;26.644;2024-03-08T12:45:28;99294.25;;;6.87;71.99
80149;BME280;69473;42.426;26.644;2024-03-08T12:47:55;99297.78;;;6.93;71.76
80149;BME280;69473;42.426;26.644;2024-03-08T12:50:21;99299.38;;;6.87;71.86
80149;BME280;69473;42.426;26.644;2024-03-08T12:52:47;99307.88;;;6.81;73.25
80149;BME280;69473;42.426;26.644;2024-03-08T12:55:14;99305.13;;;6.70;73.00
80149;BME280;69473;42.426;26.644;2024-03-08T12:57:42;99306.69;;;6.62;73.63
80149;BME280;69473;42.426;26.644;2024-03-08T13:00:08;99310.00;;;6.55;73.43
80149;BME280;69473;42.426;26.644;2024-03-08T13:02:41;99321.91;;;6.50;72.84
80149;BME280;69473;42.426;26.644;2024-03-08T13:05:08;99326.00;;;6.39;73.90
80149;BME280;69473;42.426;26.644;2024-03-08T13:07:35;99323.31;;;6.33;73.90
80149;BME280;69473;42.426;26.644;2024-03-08T13:10:03;99323.25;;;6.30;73.89
80149;BME280;69473;42.426;26.644;2024-03-08T13:12:29;99323.00;;;6.17;75.22
80149;BME280;69473;42.426;26.644;2024-03-08T13:14:55;99328.16;;;6.17;74.92
80149;BME280;69473;42.426;26.644;2024-03-08T13:17:22;99322.94;;;6.14;75.04
80149;BME280;69473;42.426;26.644;2024-03-08T13:19:47;99330.75;;;6.19;74.30
80149;BME280;69473;42.426;26.644;2024-03-08T13:22:13;99322.94;;;6.14;74.76
80149;BME280;69473;42.426;26.644;2024-03-08T13:24:44;99328.16;;;6.17;74.71
80149;BME280;69473;42.426;26.644;2024-03-08T13:27:11;99335.03;;;6.18;74.21
80149;BME280;69473;42.426;26.644;2024-03-08T13:29:48;99329.75;;;6.12;74.86
80149;BME280;69473;42.426;26.644;2024-03-08T13:32:17;99332.38;;;6.14;75.08
80149;BME280;69473;42.426;26.644;2024-03-08T13:34:46;99333.19;;;6.11;76.28
80149;BME280;69473;42.426;26.644;2024-03-08T13:37:13;99336.50;;;6.07;76.51
80149;BME280;69473;42.426;26.644;2024-03-08T13:39:40;99336.69;;;6.16;75.22
80149;BME280;69473;42.426;26.644;2024-03-08T13:42:13;99336.56;;;6.10;76.16
80149;BME280;69473;42.426;26.644;2024-03-08T13:44:43;99330.53;;;6.08;76.36
80149;BME280;69473;42.426;26.644;2024-03-08T13:47:08;99330.56;;;6.10;76.30
80149;BME280;69473;42.426;26.644;2024-03-08T13:49:37;99331.59;;;6.19;76.10
80149;BME280;69473;42.426;26.644;2024-03-08T13:52:03;99328.09;;;6.14;75.93
80149;BME280;69473;42.426;26.644;2024-03-08T13:54:29;99323.88;;;6.18;75.35
80149;BME280;69473;42.426;26.644;2024-03-08T13:56:58;99325.66;;;6.22;75.71
80149;BME280;69473;42.426;26.644;2024-03-08T13:59:23;99323.13;;;6.23;75.43
80149;BME280;69473;42.426;26.644;2024-03-08T14:01:50;99318.03;;;6.27;75.09
80149;BME280;69473;42.426;26.644;2024-03-08T14:04:16;99316.22;;;6.22;75.52
80149;BME280;69473;42.426;26.644;2024-03-08T14:06:44;99308.44;;;6.19;75.65
80149;BME280;69473;42.426;26.644;2024-03-08T14:09:12;99321.38;;;6.22;74.81
80149;BME280;69473;42.426;26.644;2024-03-08T14:11:44;99319.53;;;6.15;76.02
80149;BME280;69473;42.426;26.644;2024-03-08T14:14:10;99323.00;;;6.17;75.55
80149;BME280;69473;42.426;26.644;2024-03-08T14:16:38;99323.94;;;6.22;76.05
80149;BME280;69473;42.426;26.644;2024-03-08T14:19:04;99317.75;;;6.11;75.59
80149;BME280;69473;42.426;26.644;2024-03-08T14:21:34;99318.53;;;6.09;76.27
80149;BME280;69473;42.426;26.644;2024-03-08T14:23:59;99315.72;;;5.98;76.98